sensor_id;sensor_type;location;lat;lon;timestamp;pressure;altitude;pressure_sealevel;temperature;humidity
64827;BME280;51265;53.972;12.286;2023-02-28T00:00:37;102359.84;;;-3.34;100.00
64827;BME280;51265;53.972;12.286;2023-02-28T00:03:04;102372.31;;;-3.33;100.00
64827;BME280;51265;53.972;12.286;2023-02-28T00:05:31;102372.44;;;-3.35;100.00
64827;BME280;51265;53.972;12.286;2023-02-28T00:07:57;102366.88;;;-3.41;100.00
64827;BME280;51265;53.972;12.286;2023-02-28T00:10:26;102365.84;;;-3.48;100.00
64827;BME280;51265;53.972;12.286;2023-02-28T00:12:54;102367.03;;;-3.51;100.00
64827;BME280;51265;53.972;12.286;2023-02-28T00:15:23;102373.94;;;-3.48;100.00
64827;BME280;51265;53.972;12.286;2023-02-28T00:17:50;102379.84;;;-3.45;100.00
64827;BME280;51265;53.972;12.286;2023-02-28T00:20:17;102374.63;;;-3.46;100.00
64827;BME280;51265;53.972;12.286;2023-02-28T00:22:45;102387.41;;;-3.48;100.00
64827;BME280;51265;53.972;12.286;2023-02-28T00:25:15;102387.56;;;-3.50;100.00
64827;BME280;51265;53.972;12.286;2023-02-28T00:27:42;102390.94;;;-3.48;100.00
64827;BME280;51265;53.972;12.286;2023-02-28T00:30:12;102395.47;;;-3.48;100.00
64827;BME280;51265;53.972;12.286;2023-02-28T00:32:38;102395.66;;;-3.50;100.00
64827;BME280;51265;53.972;12.286;2023-02-28T00:35:05;102395.66;;;-3.50;100.00
64827;BME280;51265;53.972;12.286;2023-02-28T00:37:32;102385.72;;;-3.49;100.00
64827;BME280;51265;53.972;12.286;2023-02-28T00:39:58;102395.13;;;-3.54;100.00
64827;BME280;51265;53.972;12.286;2023-02-28T00:42:24;102403.88;;;-3.52;100.00
64827;BME280;51265;53.972;12.286;2023-02-28T00:44:50;102406.25;;;-3.48;100.00
64827;BME280;51265;53.972;12.286;2023-02-28T00:47:16;102408.41;;;-3.52;100.00
64827;BME280;51265;53.972;12.286;2023-02-28T00:49:43;102400.50;;;-3.54;100.00
64827;BME280;51265;53.972;12.286;2023-02-28T00:52:09;102403.88;;;-3.52;100.00
64827;BME280;51265;53.972;12.286;2023-02-28T00:54:35;102407.94;;;-3.47;100.00
64827;BME280;51265;53.972;12.286;2023-02-28T00:57:01;102403.53;;;-3.57;100.00
64827;BME280;51265;53.972;12.286;2023-02-28T00:59:28;102405.16;;;-3.64;100.00
64827;BME280;51265;53.972;12.286;2023-02-28T01:01:54;102402.13;;;-3.69;100.00
64827;BME280;51265;53.972;12.286;2023-02-28T01:04:21;102411.22;;;-3.70;100.00
64827;BME280;51265;53.972;12.286;2023-02-28T01:06:48;102413.72;;;-3.68;100.00
64827;BME280;51265;53.972;12.286;2023-02-28T01:09:14;102416.59;;;-3.70;100.00
64827;BME280;51265;53.972;12.286;2023-02-28T01:11:42;102411.53;;;-3.73;100.00
64827;BME280;51265;53.972;12.286;2023-02-28T01:14:15;102414.91;;;-3.71;100.00
64827;BME280;51265;53.972;12.286;2023-02-28T01:16:42;102420.97;;;-3.69;100.00
64827;BME280;51265;53.972;12.286;2023-02-28T01:19:08;102423.88;;;-3.62;100.00
64827;BME280;51265;53.972;12.286;2023-02-28T01:21:35;102428.75;;;-3.66;100.00
64827;BME280;51265;53.972;12.286;2023-02-28T01:24:02;102419.28;;;-3.70;100.00
64827;BME280;51265;53.972;12.286;2023-02-28T01:26:29;102419.47;;;-3.71;100.00
64827;BME280;51265;53.972;12.286;2023-02-28T01:28:55;102412.91;;;-3.69;100.00
64827;BME280;51265;53.972;12.286;2023-02-28T01:31:22;102419.97;;;-3.68;100.00
64827;BME280;51265;53.972;12.286;2023-02-28T01:33:49;102419.97;;;-3.68;100.00
64827;BME280;51265;53.972;12.286;2023-02-28T01:36:18;102413.25;;;-3.72;100.00
64827;BME280;51265;53.972;12.286;2023-02-28T01:38:45;102422.66;;;-3.76;100.00
64827;BME280;51265;53.972;12.286;2023-02-28T01:41:20;102431.69;;;-3.77;100.00
64827;BME280;51265;53.972;12.286;2023-02-28T01:46:14;102422.66;;;-3.68;100.00
64827;BME280;51265;53.972;12.286;2023-02-28T01:49:09;102428.03;;;-3.68;100.00
64827;BME280;51265;53.972;12.286;2023-02-28T01:51:43;102416.91;;;-3.73;100.00
64827;BME280;51265;53.972;12.286;2023-02-28T01:54:21;102421.28;;;-3.80;100.00
64827;BME280;51265;53.972;12.286;2023-02-28T01:56:55;102422.25;;;-3.81;100.00
64827;BME280;51265;53.972;12.286;2023-02-28T01:59:28;102427.03;;;-3.75;100.00
64827;BME280;51265;53.972;12.286;2023-02-28T02:01:56;102438.00;;;-3.60;100.00
64827;BME280;51265;53.972;12.286;2023-02-28T02:04:25;102433.16;;;-3.57;100.00
64827;BME280;51265;53.972;12.286;2023-02-28T02:06:51;102419.69;;;-3.57;100.00
64827;BME280;51265;53.972;12.286;2023-02-28T02:09:18;102431.97;;;-3.62;100.00
64827;BME280;51265;53.972;12.286;2023-02-28T02:11:44;102425.03;;;-3.65;100.00
64827;BME280;51265;53.972;12.286;2023-02-28T02:27:54;102425.69;;;-3.71;100.00
64827;BME280;51265;53.972;12.286;2023-02-28T02:36:28;102430.34;;;-3.81;100.00
64827;BME280;51265;53.972;12.286;2023-02-28T02:39:10;102423.22;;;-3.90;100.00
64827;BME280;51265;53.972;12.286;2023-02-28T02:41:51;102439.91;;;-3.87;100.00
64827;BME280;51265;53.972;12.286;2023-02-28T02:44:40;102440.06;;;-3.88;100.00
64827;BME280;51265;53.972;12.286;2023-02-28T02:47:13;102443.13;;;-3.83;100.00
64827;BME280;51265;53.972;12.286;2023-02-28T02:49:45;102448.19;;;-3.80;100.00
64827;BME280;51265;53.972;12.286;2023-02-28T02:52:15;102458.09;;;-3.81;100.00
64827;BME280;51265;53.972;12.286;2023-02-28T02:54:46;102453.25;;;-3.77;100.00
64827;BME280;51265;53.972;12.286;2023-02-28T02:57:20;102452.63;;;-3.71;100.00
64827;BME280;51265;53.972;12.286;2023-02-28T02:59:49;102447.53;;;-3.74;100.00
64827;BME280;51265;53.972;12.286;2023-02-28T03:02:20;102445.88;;;-3.75;100.00
64827;BME280;51265;53.972;12.286;2023-02-28T03:04:59;102446.53;;;-3.73;100.00
64827;BME280;51265;53.972;12.286;2023-02-28T03:07:27;102441.94;;;-3.81;100.00
64827;BME280;51265;53.972;12.286;2023-02-28T03:09:55;102440.06;;;-3.88;100.00
64827;BME280;51265;53.972;12.286;2023-02-28T03:12:32;102443.56;;;-3.96;100.00
64827;BME280;51265;53.972;12.286;2023-02-28T03:15:06;102433.94;;;-3.98;100.00
64827;BME280;51265;53.972;12.286;2023-02-28T03:17:52;102439.31;;;-3.98;100.00
64827;BME280;51265;53.972;12.286;2023-02-28T03:20:38;102441.41;;;-3.92;100.00
64827;BME280;51265;53.972;12.286;2023-02-28T03:23:14;102452.88;;;-3.82;100.00
64827;BME280;51265;53.972;12.286;2023-02-28T03:26:07;102449.56;;;-3.76;100.00
64827;BME280;51265;53.972;12.286;2023-02-28T03:28:45;102447.84;;;-3.77;100.00
64827;BME280;51265;53.972;12.286;2023-02-28T03:31:20;102451.34;;;-3.85;100.00
64827;BME280;51265;53.972;12.286;2023-02-28T03:33:51;102453.16;;;-3.93;100.00
64827;BME280;51265;53.972;12.286;2023-02-28T03:36:42;102445.00;;;-4.02;100.00
64827;BME280;51265;53.972;12.286;2023-02-28T03:39:18;102448.72;;;-4.03;100.00
64827;BME280;51265;53.972;12.286;2023-02-28T03:42:01;102442.50;;;-4.03;100.00
64827;BME280;51265;53.972;12.286;2023-02-28T03:44:49;102443.63;;;-4.06;100.00
64827;BME280;51265;53.972;12.286;2023-02-28T03:47:25;102445.19;;;-4.03;100.00
64827;BME280;51265;53.972;12.286;2023-02-28T03:50:19;102450.41;;;-4.02;100.00
64827;BME280;51265;53.972;12.286;2023-02-28T03:52:51;102441.66;;;-4.04;100.00
64827;BME280;51265;53.972;12.286;2023-02-28T03:55:20;102451.41;;;-4.03;100.00
64827;BME280;51265;53.972;12.286;2023-02-28T04:00:58;102464.78;;;-3.93;100.00
64827;BME280;51265;53.972;12.286;2023-02-28T04:03:36;102471.06;;;-3.84;100.00
64827;BME280;51265;53.972;12.286;2023-02-28T04:06:04;102466.13;;;-3.89;100.00
64827;BME280;51265;53.972;12.286;2023-02-28T04:08:31;102460.59;;;-3.87;100.00
64827;BME280;51265;53.972;12.286;2023-02-28T04:11:03;102459.91;;;-3.89;100.00
64827;BME280;51265;53.972;12.286;2023-02-28T04:13:31;102456.06;;;-3.87;100.00
64827;BME280;51265;53.972;12.286;2023-02-28T04:15:58;102444.44;;;-3.87;100.00
64827;BME280;51265;53.972;12.286;2023-02-28T04:18:24;102449.97;;;-3.89;100.00
64827;BME280;51265;53.972;12.286;2023-02-28T04:20:50;102441.72;;;-3.95;100.00
64827;BME280;51265;53.972;12.286;2023-02-28T04:23:17;102445.19;;;-4.03;100.00
64827;BME280;51265;53.972;12.286;2023-02-28T04:25:43;102447.81;;;-4.11;100.00
64827;BME280;51265;53.972;12.286;2023-02-28T04:28:09;102444.94;;;-4.18;100.00
64827;BME280;51265;53.972;12.286;2023-02-28T04:30:37;102454.50;;;-4.15;100.00
64827;BME280;51265;53.972;12.286;2023-02-28T04:33:03;102460.75;;;-4.15;100.00
64827;BME280;51265;53.972;12.286;2023-02-28T04:35:29;102448.59;;;-4.19;100.00
64827;BME280;51265;53.972;12.286;2023-02-28T04:37:56;102447.22;;;-4.23;100.00
64827;BME280;51265;53.972;12.286;2023-02-28T04:40:22;102449.44;;;-4.18;100.00
64827;BME280;51265;53.972;12.286;2023-02-28T04:42:48;102446.63;;;-4.17;100.00
64827;BME280;51265;53.972;12.286;2023-02-28T04:45:14;102452.28;;;-4.20;100.00
64827;BME280;51265;53.972;12.286;2023-02-28T04:47:40;102454.31;;;-4.22;100.00
64827;BME280;51265;53.972;12.286;2023-02-28T04:50:07;102462.06;;;-4.19;100.00
64827;BME280;51265;53.972;12.286;2023-02-28T04:52:34;102460.44;;;-4.12;100.00
64827;BME280;51265;53.972;12.286;2023-02-28T04:55:00;102461.81;;;-4.08;100.00
64827;BME280;51265;53.972;12.286;2023-02-28T04:57:26;102461.81;;;-4.08;100.00
64827;BME280;51265;53.972;12.286;2023-02-28T04:59:52;102464.97;;;-4.12;100.00
64827;BME280;51265;53.972;12.286;2023-02-28T05:02:19;102469.66;;;-4.14;100.00
64827;BME280;51265;53.972;12.286;2023-02-28T05:04:46;102471.84;;;-4.18;100.00
64827;BME280;51265;53.972;12.286;2023-02-28T05:07:13;102469.16;;;-4.18;100.00
64827;BME280;51265;53.972;12.286;2023-02-28T05:09:39;102466.06;;;-4.23;100.00
64827;BME280;51265;53.972;12.286;2023-02-28T05:12:06;102464.38;;;-4.24;100.00
64827;BME280;51265;53.972;12.286;2023-02-28T05:14:33;102463.06;;;-4.20;100.00
64827;BME280;51265;53.972;12.286;2023-02-28T05:16:59;102461.38;;;-4.21;100.00
64827;BME280;51265;53.972;12.286;2023-02-28T05:19:25;102467.78;;;-4.22;100.00
64827;BME280;51265;53.972;12.286;2023-02-28T05:21:53;102476.69;;;-4.21;100.00
64827;BME280;51265;53.972;12.286;2023-02-28T05:24:20;102472.16;;;-4.21;100.00
64827;BME280;51265;53.972;12.286;2023-02-28T05:26:51;102487.03;;;-4.27;100.00
64827;BME280;51265;53.972;12.286;2023-02-28T05:29:18;102478.22;;;-4.37;100.00
64827;BME280;51265;53.972;12.286;2023-02-28T05:31:45;102469.25;;;-4.45;100.00
64827;BME280;51265;53.972;12.286;2023-02-28T05:34:11;102474.38;;;-4.52;100.00
64827;BME280;51265;53.972;12.286;2023-02-28T05:36:38;102472.69;;;-4.53;100.00
64827;BME280;51265;53.972;12.286;2023-02-28T05:39:06;102480.09;;;-4.55;100.00
64827;BME280;51265;53.972;12.286;2023-02-28T05:41:33;102470.00;;;-4.53;100.00
64827;BME280;51265;53.972;12.286;2023-02-28T05:43:59;102469.34;;;-4.55;100.00
64827;BME280;51265;53.972;12.286;2023-02-28T05:46:26;102473.84;;;-4.56;100.00
64827;BME280;51265;53.972;12.286;2023-02-28T05:48:52;102475.56;;;-4.55;100.00
64827;BME280;51265;53.972;12.286;2023-02-28T05:51:18;102478.09;;;-4.53;100.00
64827;BME280;51265;53.972;12.286;2023-02-28T05:53:45;102488.84;;;-4.53;100.00
64827;BME280;51265;53.972;12.286;2023-02-28T05:56:11;102490.06;;;-4.47;100.00
64827;BME280;51265;53.972;12.286;2023-02-28T05:58:38;102490.13;;;-4.39;100.00
64827;BME280;51265;53.972;12.286;2023-02-28T06:01:33;102499.44;;;-4.34;100.00
64827;BME280;51265;53.972;12.286;2023-02-28T06:04:01;102505.38;;;-4.30;100.00
64827;BME280;51265;53.972;12.286;2023-02-28T06:06:28;102506.22;;;-4.30;100.00
64827;BME280;51265;53.972;12.286;2023-02-28T06:08:56;102502.81;;;-4.32;100.00
64827;BME280;51265;53.972;12.286;2023-02-28T06:11:22;102518.66;;;-4.29;100.00
64827;BME280;51265;53.972;12.286;2023-02-28T06:13:57;102518.34;;;-4.26;100.00
64827;BME280;51265;53.972;12.286;2023-02-28T06:16:24;102510.50;;;-4.19;100.00
64827;BME280;51265;53.972;12.286;2023-02-28T06:18:50;102514.56;;;-4.15;100.00
64827;BME280;51265;53.972;12.286;2023-02-28T06:21:18;102511.72;;;-4.13;100.00
64827;BME280;51265;53.972;12.286;2023-02-28T06:23:44;102511.25;;;-4.09;100.00
64827;BME280;51265;53.972;12.286;2023-02-28T06:26:11;102508.63;;;-4.01;100.00
64827;BME280;51265;53.972;12.286;2023-02-28T06:28:37;102513.75;;;-3.89;100.00
64827;BME280;51265;53.972;12.286;2023-02-28T06:31:11;102516.97;;;-3.86;100.00
64827;BME280;51265;53.972;12.286;2023-02-28T06:33:39;102517.03;;;-3.78;100.00
64827;BME280;51265;53.972;12.286;2023-02-28T06:36:07;102516.06;;;-3.68;100.00
64827;BME280;51265;53.972;12.286;2023-02-28T06:38:34;102516.28;;;-3.62;100.00
64827;BME280;51265;53.972;12.286;2023-02-28T06:41:00;102516.16;;;-3.52;100.00
64827;BME280;51265;53.972;12.286;2023-02-28T06:43:29;102520.81;;;-3.36;100.00
64827;BME280;51265;53.972;12.286;2023-02-28T06:45:57;102523.34;;;-3.35;100.00
64827;BME280;51265;53.972;12.286;2023-02-28T06:48:25;102511.25;;;-3.22;100.00
64827;BME280;51265;53.972;12.286;2023-02-28T06:50:51;102518.22;;;-3.12;100.00
64827;BME280;51265;53.972;12.286;2023-02-28T06:53:17;102520.97;;;-3.04;100.00
64827;BME280;51265;53.972;12.286;2023-02-28T06:55:44;102526.41;;;-2.87;100.00
64827;BME280;51265;53.972;12.286;2023-02-28T06:58:10;102528.44;;;-2.81;100.00
64827;BME280;51265;53.972;12.286;2023-02-28T07:00:45;102525.75;;;-2.81;100.00
64827;BME280;51265;53.972;12.286;2023-02-28T07:03:13;102530.50;;;-2.75;100.00
64827;BME280;51265;53.972;12.286;2023-02-28T07:05:41;102523.25;;;-2.66;100.00
64827;BME280;51265;53.972;12.286;2023-02-28T07:08:07;102529.19;;;-2.63;100.00
64827;BME280;51265;53.972;12.286;2023-02-28T07:10:36;102533.91;;;-2.57;100.00
64827;BME280;51265;53.972;12.286;2023-02-28T07:13:04;102536.28;;;-2.45;100.00
64827;BME280;51265;53.972;12.286;2023-02-28T07:15:30;102535.63;;;-2.39;100.00
64827;BME280;51265;53.972;12.286;2023-02-28T07:17:56;102532.59;;;-2.36;100.00
64827;BME280;51265;53.972;12.286;2023-02-28T07:20:23;102528.72;;;-2.34;100.00
64827;BME280;51265;53.972;12.286;2023-02-28T07:22:50;102544.44;;;-2.21;100.00
64827;BME280;51265;53.972;12.286;2023-02-28T07:25:26;102544.25;;;-2.11;100.00
64827;BME280;51265;53.972;12.286;2023-02-28T07:27:53;102550.16;;;-1.91;100.00
64827;BME280;51265;53.972;12.286;2023-02-28T07:30:20;102540.69;;;-1.71;100.00
64827;BME280;51265;53.972;12.286;2023-02-28T07:32:46;102543.03;;;-1.60;100.00
64827;BME280;51265;53.972;12.286;2023-02-28T07:35:13;102542.34;;;-1.54;100.00
64827;BME280;51265;53.972;12.286;2023-02-28T07:37:41;102542.50;;;-1.47;100.00
64827;BME280;51265;53.972;12.286;2023-02-28T07:40:10;102541.00;;;-1.49;100.00
64827;BME280;51265;53.972;12.286;2023-02-28T07:42:41;102546.09;;;-1.55;100.00
64827;BME280;51265;53.972;12.286;2023-02-28T07:45:09;102547.91;;;-1.47;100.00
64827;BME280;51265;53.972;12.286;2023-02-28T07:47:38;102544.28;;;-1.15;100.00
64827;BME280;51265;53.972;12.286;2023-02-28T07:50:06;102539.88;;;-1.16;100.00
64827;BME280;51265;53.972;12.286;2023-02-28T07:52:32;102549.66;;;-1.07;100.00
64827;BME280;51265;53.972;12.286;2023-02-28T07:54:58;102550.28;;;-0.96;100.00
64827;BME280;51265;53.972;12.286;2023-02-28T07:57:25;102549.94;;;-0.93;100.00
64827;BME280;51265;53.972;12.286;2023-02-28T07:59:51;102556.56;;;-0.96;100.00
64827;BME280;51265;53.972;12.286;2023-02-28T08:02:18;102560.41;;;-0.90;100.00
64827;BME280;51265;53.972;12.286;2023-02-28T08:04:44;102559.91;;;-0.94;100.00
64827;BME280;51265;53.972;12.286;2023-02-28T08:07:14;102568.25;;;-1.04;100.00
64827;BME280;51265;53.972;12.286;2023-02-28T08:09:40;102564.41;;;-0.78;100.00
64827;BME280;51265;53.972;12.286;2023-02-28T08:12:07;102569.47;;;-0.75;100.00
64827;BME280;51265;53.972;12.286;2023-02-28T08:14:33;102559.28;;;-0.65;100.00
64827;BME280;51265;53.972;12.286;2023-02-28T08:17:00;102555.28;;;-0.77;100.00
64827;BME280;51265;53.972;12.286;2023-02-28T08:19:27;102556.75;;;-0.66;100.00
64827;BME280;51265;53.972;12.286;2023-02-28T08:21:54;102551.34;;;-0.66;100.00
64827;BME280;51265;53.972;12.286;2023-02-28T08:24:20;102553.84;;;-0.65;100.00
64827;BME280;51265;53.972;12.286;2023-02-28T08:26:46;102542.44;;;-0.52;100.00
64827;BME280;51265;53.972;12.286;2023-02-28T08:29:12;102546.09;;;-0.37;100.00
64827;BME280;51265;53.972;12.286;2023-02-28T08:31:38;102546.44;;;-0.17;100.00
64827;BME280;51265;53.972;12.286;2023-02-28T08:34:09;102552.59;;;0.00;100.00
64827;BME280;51265;53.972;12.286;2023-02-28T08:36:35;102555.69;;;0.12;100.00
64827;BME280;51265;53.972;12.286;2023-02-28T08:39:01;102550.47;;;0.25;100.00
64827;BME280;51265;53.972;12.286;2023-02-28T08:41:27;102552.13;;;0.34;100.00
64827;BME280;51265;53.972;12.286;2023-02-28T08:43:53;102546.22;;;0.45;100.00
64827;BME280;51265;53.972;12.286;2023-02-28T08:46:20;102552.59;;;0.53;100.00
64827;BME280;51265;53.972;12.286;2023-02-28T08:48:46;102554.88;;;0.64;100.00
64827;BME280;51265;53.972;12.286;2023-02-28T08:51:15;102548.31;;;0.73;100.00
64827;BME280;51265;53.972;12.286;2023-02-28T08:53:47;102543.53;;;0.75;100.00
64827;BME280;51265;53.972;12.286;2023-02-28T08:56:16;102549.19;;;0.88;100.00
64827;BME280;51265;53.972;12.286;2023-02-28T08:58:54;102555.41;;;1.04;100.00
64827;BME280;51265;53.972;12.286;2023-02-28T09:01:24;102545.13;;;1.14;100.00
64827;BME280;51265;53.972;12.286;2023-02-28T09:03:51;102538.19;;;1.26;100.00
64827;BME280;51265;53.972;12.286;2023-02-28T09:06:19;102538.34;;;1.39;100.00
64827;BME280;51265;53.972;12.286;2023-02-28T09:08:46;102549.72;;;1.49;100.00
64827;BME280;51265;53.972;12.286;2023-02-28T09:11:12;102546.50;;;1.61;100.00
64827;BME280;51265;53.972;12.286;2023-02-28T09:13:38;102549.63;;;1.79;100.00
64827;BME280;51265;53.972;12.286;2023-02-28T09:16:07;102540.84;;;1.77;100.00
64827;BME280;51265;53.972;12.286;2023-02-28T09:18:34;102518.56;;;1.67;100.00
64827;BME280;51265;53.972;12.286;2023-02-28T09:21:05;102493.88;;;1.62;100.00
64827;BME280;51265;53.972;12.286;2023-02-28T09:23:31;102476.69;;;1.76;100.00
64827;BME280;51265;53.972;12.286;2023-02-28T09:25:57;102476.13;;;1.87;100.00
64827;BME280;51265;53.972;12.286;2023-02-28T09:28:23;102459.88;;;1.94;100.00
64827;BME280;51265;53.972;12.286;2023-02-28T09:30:52;102426.84;;;1.90;100.00
64827;BME280;51265;53.972;12.286;2023-02-28T09:33:20;102406.75;;;1.91;100.00
64827;BME280;51265;53.972;12.286;2023-02-28T09:35:50;102399.75;;;2.04;100.00
64827;BME280;51265;53.972;12.286;2023-02-28T09:38:17;102396.88;;;2.12;100.00
64827;BME280;51265;53.972;12.286;2023-02-28T09:40:52;102407.28;;;2.36;100.00
64827;BME280;51265;53.972;12.286;2023-02-28T09:43:22;102398.28;;;2.42;100.00
64827;BME280;51265;53.972;12.286;2023-02-28T09:45:52;102379.06;;;2.44;100.00
64827;BME280;51265;53.972;12.286;2023-02-28T09:48:28;102366.38;;;2.58;100.00
64827;BME280;51265;53.972;12.286;2023-02-28T09:51:05;102383.81;;;2.83;100.00
64827;BME280;51265;53.972;12.286;2023-02-28T09:53:37;102398.78;;;3.07;100.00
64827;BME280;51265;53.972;12.286;2023-02-28T09:56:11;102352.47;;;2.94;100.00
64827;BME280;51265;53.972;12.286;2023-02-28T09:58:58;102328.59;;;2.89;100.00
64827;BME280;51265;53.972;12.286;2023-02-28T10:01:49;102287.34;;;2.86;100.00
64827;BME280;51265;53.972;12.286;2023-02-28T10:06:51;102278.56;;;3.04;100.00
64827;BME280;51265;53.972;12.286;2023-02-28T10:09:24;102245.91;;;3.04;100.00
64827;BME280;51265;53.972;12.286;2023-02-28T10:11:54;102253.66;;;3.20;100.00
64827;BME280;51265;53.972;12.286;2023-02-28T10:14:25;102242.53;;;3.21;100.00
64827;BME280;51265;53.972;12.286;2023-02-28T10:16:57;102239.78;;;3.41;100.00
64827;BME280;51265;53.972;12.286;2023-02-28T10:19:30;102257.13;;;3.73;100.00
64827;BME280;51265;53.972;12.286;2023-02-28T10:22:02;102269.00;;;4.06;100.00
64827;BME280;51265;53.972;12.286;2023-02-28T10:24:47;102271.38;;;4.40;100.00
64827;BME280;51265;53.972;12.286;2023-02-28T10:29:47;102196.28;;;4.63;98.38
64827;BME280;51265;53.972;12.286;2023-02-28T10:32:19;102220.41;;;4.97;98.79
64827;BME280;51265;53.972;12.286;2023-02-28T10:37:37;102131.34;;;4.96;93.97
64827;BME280;51265;53.972;12.286;2023-02-28T10:40:06;102085.31;;;4.57;93.15
64827;BME280;51265;53.972;12.286;2023-02-28T10:42:32;102089.47;;;4.34;92.79
64827;BME280;51265;53.972;12.286;2023-02-28T10:45:16;102093.34;;;4.52;92.32
64827;BME280;51265;53.972;12.286;2023-02-28T10:48:27;102084.09;;;4.53;91.77
64827;BME280;51265;53.972;12.286;2023-02-28T10:50:55;102095.19;;;4.76;91.41
64827;BME280;51265;53.972;12.286;2023-02-28T11:01:22;101995.28;;;5.12;85.70
64827;BME280;51265;53.972;12.286;2023-02-28T11:03:50;102001.06;;;5.34;84.61
64827;BME280;51265;53.972;12.286;2023-02-28T11:06:22;101984.47;;;5.35;84.75
64827;BME280;51265;53.972;12.286;2023-02-28T11:08:55;101971.03;;;5.34;83.57
64827;BME280;51265;53.972;12.286;2023-02-28T11:11:24;101948.97;;;5.17;84.08
64827;BME280;51265;53.972;12.286;2023-02-28T11:13:53;101942.94;;;4.96;84.59
64827;BME280;51265;53.972;12.286;2023-02-28T11:16:20;101974.03;;;4.95;86.23
64827;BME280;51265;53.972;12.286;2023-02-28T11:18:49;101972.69;;;4.86;86.35
64827;BME280;51265;53.972;12.286;2023-02-28T11:21:20;101943.09;;;4.83;85.88
64827;BME280;51265;53.972;12.286;2023-02-28T11:23:49;101942.34;;;4.94;85.41
64827;BME280;51265;53.972;12.286;2023-02-28T11:26:36;101954.88;;;5.14;84.91
64827;BME280;51265;53.972;12.286;2023-02-28T11:29:16;101908.34;;;5.50;82.23
64827;BME280;51265;53.972;12.286;2023-02-28T11:31:43;101946.28;;;6.01;81.98
64827;BME280;51265;53.972;12.286;2023-02-28T11:34:27;101990.91;;;6.60;82.64
64827;BME280;51265;53.972;12.286;2023-02-28T11:36:58;101894.94;;;6.78;78.30
64827;BME280;51265;53.972;12.286;2023-02-28T11:39:26;101798.69;;;6.69;74.91
64827;BME280;51265;53.972;12.286;2023-02-28T11:42:14;101691.84;;;5.95;74.35
64827;BME280;51265;53.972;12.286;2023-02-28T11:45:00;101642.38;;;5.45;73.55
64827;BME280;51265;53.972;12.286;2023-02-28T11:50:21;101673.25;;;5.45;74.49
64827;BME280;51265;53.972;12.286;2023-02-28T11:55:54;101815.31;;;6.68;75.57
64827;BME280;51265;53.972;12.286;2023-02-28T11:58:47;101734.38;;;6.15;76.22
64827;BME280;51265;53.972;12.286;2023-02-28T12:01:31;101746.53;;;5.95;76.64
64827;BME280;51265;53.972;12.286;2023-02-28T12:04:21;101740.47;;;5.70;77.95
64827;BME280;51265;53.972;12.286;2023-02-28T12:06:57;101734.53;;;5.49;78.37
64827;BME280;51265;53.972;12.286;2023-02-28T12:09:42;101752.50;;;5.57;79.04
64827;BME280;51265;53.972;12.286;2023-02-28T12:18:35;101716.47;;;5.95;77.41
64827;BME280;51265;53.972;12.286;2023-02-28T12:24:01;101637.91;;;5.67;76.38
64827;BME280;51265;53.972;12.286;2023-02-28T12:29:17;101601.97;;;5.47;75.54
64827;BME280;51265;53.972;12.286;2023-02-28T12:34:38;101620.91;;;5.77;75.89
64827;BME280;51265;53.972;12.286;2023-02-28T12:37:10;101618.00;;;5.95;75.06
64827;BME280;51265;53.972;12.286;2023-02-28T12:39:43;101557.25;;;5.93;73.77
64827;BME280;51265;53.972;12.286;2023-02-28T12:42:13;101563.31;;;6.24;72.52
64827;BME280;51265;53.972;12.286;2023-02-28T12:44:51;101518.59;;;6.18;71.36
64827;BME280;51265;53.972;12.286;2023-02-28T12:47:19;101483.13;;;6.57;69.34
64827;BME280;51265;53.972;12.286;2023-02-28T12:50:05;101484.56;;;6.82;68.87
64827;BME280;51265;53.972;12.286;2023-02-28T12:55:29;101485.53;;;7.36;67.78
64827;BME280;51265;53.972;12.286;2023-02-28T13:00:33;101336.34;;;6.73;64.85
64827;BME280;51265;53.972;12.286;2023-02-28T13:11:48;101237.19;;;6.00;64.19
64827;BME280;51265;53.972;12.286;2023-02-28T13:14:30;101224.59;;;5.99;63.89
64827;BME280;51265;53.972;12.286;2023-02-28T13:19:56;101312.50;;;6.30;65.51
64827;BME280;51265;53.972;12.286;2023-02-28T13:24:56;101238.44;;;6.14;64.63
64827;BME280;51265;53.972;12.286;2023-02-28T13:27:32;101221.81;;;5.77;65.28
64827;BME280;51265;53.972;12.286;2023-02-28T13:29:59;101201.31;;;5.58;64.71
64827;BME280;51265;53.972;12.286;2023-02-28T13:37:34;101293.63;;;5.39;67.90
64827;BME280;51265;53.972;12.286;2023-02-28T13:40:27;101290.06;;;5.38;66.99
64827;BME280;51265;53.972;12.286;2023-02-28T13:42:54;101337.09;;;5.40;67.80
64827;BME280;51265;53.972;12.286;2023-02-28T13:48:01;101364.44;;;5.40;69.16
64827;BME280;51265;53.972;12.286;2023-02-28T13:50:33;101370.38;;;5.37;69.18
64827;BME280;51265;53.972;12.286;2023-02-28T13:58:52;101396.16;;;5.58;69.55
64827;BME280;51265;53.972;12.286;2023-02-28T14:01:55;101330.72;;;5.52;68.01
64827;BME280;51265;53.972;12.286;2023-02-28T14:06:39;101349.53;;;5.65;69.49
64827;BME280;51265;53.972;12.286;2023-02-28T14:11:42;101317.91;;;5.69;68.09
64827;BME280;51265;53.972;12.286;2023-02-28T14:17:04;101370.28;;;5.94;69.49
64827;BME280;51265;53.972;12.286;2023-02-28T14:19:32;101415.34;;;6.09;70.60
64827;BME280;51265;53.972;12.286;2023-02-28T14:33:14;101361.13;;;6.88;68.13
64827;BME280;51265;53.972;12.286;2023-02-28T14:38:24;101335.16;;;7.18;66.89
64827;BME280;51265;53.972;12.286;2023-02-28T14:40:53;101368.75;;;7.35;67.59
64827;BME280;51265;53.972;12.286;2023-02-28T14:43:23;101355.72;;;7.47;67.49
64827;BME280;51265;53.972;12.286;2023-02-28T14:46:02;101348.41;;;7.58;67.39
64827;BME280;51265;53.972;12.286;2023-02-28T14:48:31;101262.00;;;7.51;64.68